sensor_id;sensor_type;location;lat;lon;timestamp;P1;durP1;ratioP1;P2;durP2;ratioP2
51190;SDS011;37253;48.736;9.294;2022-12-07T00:00:49;1.30;;;1.20;;
51190;SDS011;37253;48.736;9.294;2022-12-07T00:02:49;2.75;;;1.02;;
51190;SDS011;37253;48.736;9.294;2022-12-07T00:04:50;1.85;;;1.23;;
51190;SDS011;37253;48.736;9.294;2022-12-07T00:06:50;1.10;;;1.00;;
51190;SDS011;37253;48.736;9.294;2022-12-07T00:08:52;1.67;;;1.30;;
51190;SDS011;37253;48.736;9.294;2022-12-07T00:10:52;2.35;;;1.02;;
51190;SDS011;37253;48.736;9.294;2022-12-07T00:12:53;2.13;;;1.25;;
51190;SDS011;37253;48.736;9.294;2022-12-07T00:14:53;1.98;;;1.20;;
51190;SDS011;37253;48.736;9.294;2022-12-07T00:16:53;2.58;;;1.30;;
51190;SDS011;37253;48.736;9.294;2022-12-07T00:18:54;1.95;;;1.23;;
51190;SDS011;37253;48.736;9.294;2022-12-07T00:20:59;2.15;;;1.27;;
51190;SDS011;37253;48.736;9.294;2022-12-07T00:23:19;1.40;;;1.13;;
51190;SDS011;37253;48.736;9.294;2022-12-07T00:25:19;2.58;;;1.20;;
51190;SDS011;37253;48.736;9.294;2022-12-07T00:27:20;2.03;;;1.20;;
51190;SDS011;37253;48.736;9.294;2022-12-07T00:29:20;1.00;;;0.90;;
51190;SDS011;37253;48.736;9.294;2022-12-07T00:31:25;1.52;;;0.95;;
51190;SDS011;37253;48.736;9.294;2022-12-07T00:35:28;2.17;;;1.08;;
51190;SDS011;37253;48.736;9.294;2022-12-07T00:37:28;2.75;;;1.20;;
51190;SDS011;37253;48.736;9.294;2022-12-07T00:39:29;1.40;;;1.02;;
51190;SDS011;37253;48.736;9.294;2022-12-07T00:41:29;1.58;;;1.20;;
51190;SDS011;37253;48.736;9.294;2022-12-07T00:43:30;1.13;;;1.00;;
51190;SDS011;37253;48.736;9.294;2022-12-07T00:45:30;1.73;;;1.20;;
51190;SDS011;37253;48.736;9.294;2022-12-07T00:47:31;2.58;;;1.20;;
51190;SDS011;37253;48.736;9.294;2022-12-07T00:49:31;1.40;;;1.30;;
51190;SDS011;37253;48.736;9.294;2022-12-07T00:51:32;2.22;;;1.10;;
51190;SDS011;37253;48.736;9.294;2022-12-07T00:53:35;1.27;;;1.02;;
51190;SDS011;37253;48.736;9.294;2022-12-07T00:55:36;1.90;;;1.10;;
51190;SDS011;37253;48.736;9.294;2022-12-07T00:57:37;1.20;;;1.10;;
51190;SDS011;37253;48.736;9.294;2022-12-07T00:59:37;1.33;;;1.08;;
51190;SDS011;37253;48.736;9.294;2022-12-07T01:01:38;3.17;;;1.17;;
51190;SDS011;37253;48.736;9.294;2022-12-07T01:03:38;1.50;;;1.20;;
51190;SDS011;37253;48.736;9.294;2022-12-07T01:05:39;1.73;;;1.23;;
51190;SDS011;37253;48.736;9.294;2022-12-07T01:07:39;1.48;;;1.20;;
51190;SDS011;37253;48.736;9.294;2022-12-07T01:09:40;1.70;;;1.15;;
51190;SDS011;37253;48.736;9.294;2022-12-07T01:11:40;1.80;;;1.05;;
51190;SDS011;37253;48.736;9.294;2022-12-07T01:13:40;1.20;;;1.10;;
51190;SDS011;37253;48.736;9.294;2022-12-07T01:15:42;1.15;;;1.05;;
51190;SDS011;37253;48.736;9.294;2022-12-07T01:17:43;1.10;;;1.00;;
51190;SDS011;37253;48.736;9.294;2022-12-07T01:19:44;1.40;;;1.20;;
51190;SDS011;37253;48.736;9.294;2022-12-07T01:21:44;1.20;;;1.10;;
51190;SDS011;37253;48.736;9.294;2022-12-07T01:23:44;1.80;;;1.15;;
51190;SDS011;37253;48.736;9.294;2022-12-07T01:25:45;1.15;;;1.00;;
51190;SDS011;37253;48.736;9.294;2022-12-07T01:27:45;1.70;;;1.15;;
51190;SDS011;37253;48.736;9.294;2022-12-07T01:29:46;1.25;;;1.15;;
51190;SDS011;37253;48.736;9.294;2022-12-07T01:31:48;1.35;;;1.25;;
51190;SDS011;37253;48.736;9.294;2022-12-07T01:33:50;1.45;;;1.00;;
51190;SDS011;37253;48.736;9.294;2022-12-07T01:37:52;1.20;;;1.10;;
51190;SDS011;37253;48.736;9.294;2022-12-07T01:39:52;1.30;;;1.20;;
51190;SDS011;37253;48.736;9.294;2022-12-07T01:41:52;1.20;;;1.02;;
51190;SDS011;37253;48.736;9.294;2022-12-07T01:46:15;1.92;;;1.30;;
51190;SDS011;37253;48.736;9.294;2022-12-07T01:48:16;1.75;;;1.20;;
51190;SDS011;37253;48.736;9.294;2022-12-07T01:50:19;1.73;;;1.17;;
51190;SDS011;37253;48.736;9.294;2022-12-07T01:52:27;1.77;;;1.20;;
51190;SDS011;37253;48.736;9.294;2022-12-07T01:54:31;3.38;;;1.40;;
51190;SDS011;37253;48.736;9.294;2022-12-07T01:56:32;1.42;;;1.10;;
51190;SDS011;37253;48.736;9.294;2022-12-07T01:58:33;1.30;;;1.20;;
51190;SDS011;37253;48.736;9.294;2022-12-07T02:00:33;1.35;;;1.05;;
51190;SDS011;37253;48.736;9.294;2022-12-07T02:02:35;2.13;;;1.23;;
51190;SDS011;37253;48.736;9.294;2022-12-07T02:04:37;2.05;;;1.30;;
51190;SDS011;37253;48.736;9.294;2022-12-07T02:06:38;1.52;;;1.20;;
51190;SDS011;37253;48.736;9.294;2022-12-07T02:08:38;1.20;;;1.10;;
51190;SDS011;37253;48.736;9.294;2022-12-07T02:10:39;1.35;;;1.23;;
51190;SDS011;37253;48.736;9.294;2022-12-07T02:12:39;1.05;;;0.95;;
51190;SDS011;37253;48.736;9.294;2022-12-07T02:14:40;1.40;;;1.20;;
51190;SDS011;37253;48.736;9.294;2022-12-07T02:16:47;1.58;;;1.20;;
51190;SDS011;37253;48.736;9.294;2022-12-07T02:21:09;1.40;;;1.23;;
51190;SDS011;37253;48.736;9.294;2022-12-07T02:28:05;1.85;;;1.40;;
51190;SDS011;37253;48.736;9.294;2022-12-07T02:30:14;1.92;;;1.15;;
51190;SDS011;37253;48.736;9.294;2022-12-07T02:32:18;1.40;;;1.30;;
51190;SDS011;37253;48.736;9.294;2022-12-07T02:34:39;1.52;;;1.20;;
51190;SDS011;37253;48.736;9.294;2022-12-07T02:36:46;1.77;;;1.20;;
51190;SDS011;37253;48.736;9.294;2022-12-07T02:38:52;1.55;;;1.20;;
51190;SDS011;37253;48.736;9.294;2022-12-07T02:41:10;1.38;;;1.27;;
51190;SDS011;37253;48.736;9.294;2022-12-07T02:43:17;1.67;;;1.40;;
51190;SDS011;37253;48.736;9.294;2022-12-07T02:45:21;1.30;;;1.20;;
51190;SDS011;37253;48.736;9.294;2022-12-07T02:47:22;1.10;;;1.00;;
51190;SDS011;37253;48.736;9.294;2022-12-07T02:49:23;2.15;;;1.30;;
51190;SDS011;37253;48.736;9.294;2022-12-07T02:51:25;2.70;;;1.30;;
51190;SDS011;37253;48.736;9.294;2022-12-07T02:53:32;1.27;;;1.10;;
51190;SDS011;37253;48.736;9.294;2022-12-07T02:55:34;1.60;;;1.40;;
51190;SDS011;37253;48.736;9.294;2022-12-07T03:00:09;3.83;;;1.30;;
51190;SDS011;37253;48.736;9.294;2022-12-07T03:04:33;1.45;;;1.20;;
51190;SDS011;37253;48.736;9.294;2022-12-07T03:07:25;1.48;;;1.38;;
51190;SDS011;37253;48.736;9.294;2022-12-07T03:09:36;1.27;;;1.10;;
51190;SDS011;37253;48.736;9.294;2022-12-07T03:11:45;2.08;;;1.20;;
51190;SDS011;37253;48.736;9.294;2022-12-07T03:13:50;1.50;;;1.40;;
51190;SDS011;37253;48.736;9.294;2022-12-07T03:18:08;1.98;;;1.30;;
51190;SDS011;37253;48.736;9.294;2022-12-07T03:20:10;1.75;;;1.20;;
51190;SDS011;37253;48.736;9.294;2022-12-07T03:22:14;1.30;;;1.20;;
51190;SDS011;37253;48.736;9.294;2022-12-07T03:24:15;1.65;;;1.10;;
51190;SDS011;37253;48.736;9.294;2022-12-07T03:26:17;1.40;;;1.30;;
51190;SDS011;37253;48.736;9.294;2022-12-07T03:28:20;1.58;;;1.10;;
51190;SDS011;37253;48.736;9.294;2022-12-07T03:30:24;1.85;;;1.17;;
51190;SDS011;37253;48.736;9.294;2022-12-07T03:32:30;1.35;;;1.10;;
51190;SDS011;37253;48.736;9.294;2022-12-07T03:34:47;1.50;;;1.30;;
51190;SDS011;37253;48.736;9.294;2022-12-07T03:37:00;1.65;;;1.30;;
51190;SDS011;37253;48.736;9.294;2022-12-07T03:41:18;1.40;;;1.30;;
51190;SDS011;37253;48.736;9.294;2022-12-07T03:43:23;1.27;;;1.17;;
51190;SDS011;37253;48.736;9.294;2022-12-07T03:45:24;1.40;;;1.30;;
51190;SDS011;37253;48.736;9.294;2022-12-07T03:50:00;1.23;;;1.10;;
51190;SDS011;37253;48.736;9.294;2022-12-07T03:56:26;3.55;;;1.30;;
51190;SDS011;37253;48.736;9.294;2022-12-07T03:58:27;1.42;;;1.20;;
51190;SDS011;37253;48.736;9.294;2022-12-07T04:00:28;1.25;;;1.15;;
51190;SDS011;37253;48.736;9.294;2022-12-07T04:02:29;1.50;;;1.20;;
51190;SDS011;37253;48.736;9.294;2022-12-07T04:04:29;2.10;;;1.38;;
51190;SDS011;37253;48.736;9.294;2022-12-07T04:06:29;2.65;;;1.17;;
51190;SDS011;37253;48.736;9.294;2022-12-07T04:08:30;1.95;;;1.38;;
51190;SDS011;37253;48.736;9.294;2022-12-07T04:10:30;1.40;;;1.17;;
51190;SDS011;37253;48.736;9.294;2022-12-07T04:12:30;1.33;;;1.20;;
51190;SDS011;37253;48.736;9.294;2022-12-07T04:14:31;1.55;;;1.23;;
51190;SDS011;37253;48.736;9.294;2022-12-07T04:16:31;1.45;;;1.33;;
51190;SDS011;37253;48.736;9.294;2022-12-07T04:18:31;2.00;;;1.10;;
51190;SDS011;37253;48.736;9.294;2022-12-07T04:20:32;1.20;;;1.10;;
51190;SDS011;37253;48.736;9.294;2022-12-07T04:22:32;1.35;;;1.20;;
51190;SDS011;37253;48.736;9.294;2022-12-07T04:24:32;1.35;;;1.20;;
51190;SDS011;37253;48.736;9.294;2022-12-07T04:26:33;1.52;;;1.30;;
51190;SDS011;37253;48.736;9.294;2022-12-07T04:28:33;1.92;;;1.40;;
51190;SDS011;37253;48.736;9.294;2022-12-07T04:30:34;1.58;;;1.25;;
51190;SDS011;37253;48.736;9.294;2022-12-07T04:32:34;1.40;;;1.30;;
51190;SDS011;37253;48.736;9.294;2022-12-07T04:34:34;1.42;;;1.20;;
51190;SDS011;37253;48.736;9.294;2022-12-07T04:36:35;1.30;;;1.20;;
51190;SDS011;37253;48.736;9.294;2022-12-07T04:38:36;1.65;;;1.20;;
51190;SDS011;37253;48.736;9.294;2022-12-07T04:40:36;1.95;;;1.30;;
51190;SDS011;37253;48.736;9.294;2022-12-07T04:42:37;1.10;;;1.00;;
51190;SDS011;37253;48.736;9.294;2022-12-07T04:44:37;1.50;;;1.40;;
51190;SDS011;37253;48.736;9.294;2022-12-07T04:46:37;2.97;;;1.40;;
51190;SDS011;37253;48.736;9.294;2022-12-07T04:48:38;2.42;;;1.30;;
51190;SDS011;37253;48.736;9.294;2022-12-07T04:50:38;1.55;;;1.45;;
51190;SDS011;37253;48.736;9.294;2022-12-07T04:52:38;1.30;;;1.20;;
51190;SDS011;37253;48.736;9.294;2022-12-07T04:54:39;1.20;;;1.10;;
51190;SDS011;37253;48.736;9.294;2022-12-07T04:56:39;2.13;;;1.30;;
51190;SDS011;37253;48.736;9.294;2022-12-07T04:58:40;1.55;;;1.13;;
51190;SDS011;37253;48.736;9.294;2022-12-07T05:00:40;1.33;;;1.15;;
51190;SDS011;37253;48.736;9.294;2022-12-07T05:02:41;1.40;;;1.30;;
51190;SDS011;37253;48.736;9.294;2022-12-07T05:04:41;1.30;;;1.20;;
51190;SDS011;37253;48.736;9.294;2022-12-07T05:06:41;1.20;;;1.10;;
51190;SDS011;37253;48.736;9.294;2022-12-07T05:08:42;1.40;;;1.23;;
51190;SDS011;37253;48.736;9.294;2022-12-07T05:10:43;1.23;;;1.13;;
51190;SDS011;37253;48.736;9.294;2022-12-07T05:12:43;1.50;;;1.40;;
51190;SDS011;37253;48.736;9.294;2022-12-07T05:14:43;1.17;;;1.08;;
51190;SDS011;37253;48.736;9.294;2022-12-07T05:16:44;1.30;;;1.17;;
51190;SDS011;37253;48.736;9.294;2022-12-07T05:18:46;1.77;;;1.30;;
51190;SDS011;37253;48.736;9.294;2022-12-07T05:20:46;1.38;;;1.27;;
51190;SDS011;37253;48.736;9.294;2022-12-07T05:22:46;1.30;;;1.20;;
51190;SDS011;37253;48.736;9.294;2022-12-07T05:24:47;1.30;;;1.20;;
51190;SDS011;37253;48.736;9.294;2022-12-07T05:26:47;1.70;;;1.30;;
51190;SDS011;37253;48.736;9.294;2022-12-07T05:28:51;1.45;;;1.20;;
51190;SDS011;37253;48.736;9.294;2022-12-07T05:30:55;1.38;;;1.20;;
51190;SDS011;37253;48.736;9.294;2022-12-07T05:32:55;1.63;;;1.42;;
51190;SDS011;37253;48.736;9.294;2022-12-07T05:34:55;2.05;;;1.17;;
51190;SDS011;37253;48.736;9.294;2022-12-07T05:36:56;1.73;;;1.40;;
51190;SDS011;37253;48.736;9.294;2022-12-07T05:38:56;1.30;;;1.20;;
51190;SDS011;37253;48.736;9.294;2022-12-07T05:40:59;1.83;;;1.20;;
51190;SDS011;37253;48.736;9.294;2022-12-07T05:43:01;1.52;;;1.40;;
51190;SDS011;37253;48.736;9.294;2022-12-07T05:45:01;7.03;;;1.60;;
51190;SDS011;37253;48.736;9.294;2022-12-07T05:47:02;3.95;;;1.60;;
51190;SDS011;37253;48.736;9.294;2022-12-07T05:49:02;1.60;;;1.50;;
51190;SDS011;37253;48.736;9.294;2022-12-07T05:51:02;2.75;;;1.40;;
51190;SDS011;37253;48.736;9.294;2022-12-07T05:53:03;1.70;;;1.60;;
51190;SDS011;37253;48.736;9.294;2022-12-07T05:55:03;2.25;;;1.23;;
51190;SDS011;37253;48.736;9.294;2022-12-07T05:57:03;3.28;;;1.40;;
51190;SDS011;37253;48.736;9.294;2022-12-07T05:59:04;2.53;;;1.40;;
51190;SDS011;37253;48.736;9.294;2022-12-07T06:01:22;4.55;;;1.70;;
51190;SDS011;37253;48.736;9.294;2022-12-07T06:03:22;1.40;;;1.20;;
51190;SDS011;37253;48.736;9.294;2022-12-07T06:05:23;1.98;;;1.20;;
51190;SDS011;37253;48.736;9.294;2022-12-07T06:07:23;2.20;;;1.20;;
51190;SDS011;37253;48.736;9.294;2022-12-07T06:09:24;3.30;;;1.40;;
51190;SDS011;37253;48.736;9.294;2022-12-07T06:11:25;3.15;;;1.60;;
51190;SDS011;37253;48.736;9.294;2022-12-07T06:13:44;3.50;;;1.40;;
51190;SDS011;37253;48.736;9.294;2022-12-07T06:15:44;2.92;;;1.42;;
51190;SDS011;37253;48.736;9.294;2022-12-07T06:17:44;2.28;;;1.50;;
51190;SDS011;37253;48.736;9.294;2022-12-07T06:19:45;1.67;;;1.40;;
51190;SDS011;37253;48.736;9.294;2022-12-07T06:21:45;3.55;;;1.15;;
51190;SDS011;37253;48.736;9.294;2022-12-07T06:23:45;3.13;;;1.40;;
51190;SDS011;37253;48.736;9.294;2022-12-07T06:25:47;4.95;;;1.60;;
51190;SDS011;37253;48.736;9.294;2022-12-07T06:27:48;2.75;;;1.50;;
51190;SDS011;37253;48.736;9.294;2022-12-07T06:29:48;3.03;;;1.38;;
51190;SDS011;37253;48.736;9.294;2022-12-07T06:31:48;4.78;;;1.60;;
51190;SDS011;37253;48.736;9.294;2022-12-07T06:33:48;1.90;;;1.30;;
51190;SDS011;37253;48.736;9.294;2022-12-07T06:35:49;2.40;;;1.48;;
51190;SDS011;37253;48.736;9.294;2022-12-07T06:37:49;1.20;;;1.10;;
51190;SDS011;37253;48.736;9.294;2022-12-07T06:39:49;2.00;;;1.30;;
51190;SDS011;37253;48.736;9.294;2022-12-07T06:41:50;1.40;;;1.30;;
51190;SDS011;37253;48.736;9.294;2022-12-07T06:43:51;2.50;;;1.50;;
51190;SDS011;37253;48.736;9.294;2022-12-07T06:45:52;2.08;;;1.58;;
51190;SDS011;37253;48.736;9.294;2022-12-07T06:47:52;1.58;;;1.40;;
51190;SDS011;37253;48.736;9.294;2022-12-07T06:49:52;1.42;;;1.23;;
51190;SDS011;37253;48.736;9.294;2022-12-07T06:51:53;1.42;;;1.23;;
51190;SDS011;37253;48.736;9.294;2022-12-07T06:53:53;1.33;;;1.23;;
51190;SDS011;37253;48.736;9.294;2022-12-07T06:55:53;2.10;;;1.40;;
51190;SDS011;37253;48.736;9.294;2022-12-07T06:57:54;1.38;;;1.13;;
51190;SDS011;37253;48.736;9.294;2022-12-07T06:59:54;1.85;;;1.30;;
51190;SDS011;37253;48.736;9.294;2022-12-07T07:01:54;1.73;;;1.40;;
51190;SDS011;37253;48.736;9.294;2022-12-07T07:03:55;1.60;;;1.27;;
51190;SDS011;37253;48.736;9.294;2022-12-07T07:05:55;1.90;;;1.30;;
51190;SDS011;37253;48.736;9.294;2022-12-07T07:07:55;3.20;;;1.65;;
51190;SDS011;37253;48.736;9.294;2022-12-07T07:09:55;1.42;;;1.25;;
51190;SDS011;37253;48.736;9.294;2022-12-07T07:11:56;5.60;;;1.73;;
51190;SDS011;37253;48.736;9.294;2022-12-07T07:13:56;1.67;;;1.20;;
51190;SDS011;37253;48.736;9.294;2022-12-07T07:15:59;1.60;;;1.50;;
51190;SDS011;37253;48.736;9.294;2022-12-07T07:17:59;4.25;;;1.63;;
51190;SDS011;37253;48.736;9.294;2022-12-07T07:20:00;1.48;;;1.38;;
51190;SDS011;37253;48.736;9.294;2022-12-07T07:22:00;2.95;;;1.35;;
51190;SDS011;37253;48.736;9.294;2022-12-07T07:24:00;3.05;;;1.60;;
51190;SDS011;37253;48.736;9.294;2022-12-07T07:26:01;2.10;;;1.58;;
51190;SDS011;37253;48.736;9.294;2022-12-07T07:28:01;1.83;;;1.40;;
51190;SDS011;37253;48.736;9.294;2022-12-07T07:30:01;1.83;;;1.42;;
51190;SDS011;37253;48.736;9.294;2022-12-07T07:32:02;4.95;;;1.80;;
51190;SDS011;37253;48.736;9.294;2022-12-07T07:34:03;1.90;;;1.65;;
51190;SDS011;37253;48.736;9.294;2022-12-07T07:36:04;2.35;;;1.42;;
51190;SDS011;37253;48.736;9.294;2022-12-07T07:38:05;3.80;;;1.60;;
51190;SDS011;37253;48.736;9.294;2022-12-07T07:40:05;2.75;;;1.50;;
51190;SDS011;37253;48.736;9.294;2022-12-07T07:42:07;2.88;;;1.52;;
51190;SDS011;37253;48.736;9.294;2022-12-07T07:44:07;2.72;;;1.55;;
51190;SDS011;37253;48.736;9.294;2022-12-07T07:46:07;2.30;;;1.50;;
51190;SDS011;37253;48.736;9.294;2022-12-07T07:48:08;1.85;;;1.60;;
51190;SDS011;37253;48.736;9.294;2022-12-07T07:50:08;1.45;;;1.35;;
51190;SDS011;37253;48.736;9.294;2022-12-07T07:52:09;3.55;;;1.65;;
51190;SDS011;37253;48.736;9.294;2022-12-07T07:54:09;3.58;;;1.52;;
51190;SDS011;37253;48.736;9.294;2022-12-07T07:56:09;1.52;;;1.40;;
51190;SDS011;37253;48.736;9.294;2022-12-07T07:58:10;2.85;;;1.50;;
51190;SDS011;37253;48.736;9.294;2022-12-07T08:00:11;1.70;;;1.50;;
51190;SDS011;37253;48.736;9.294;2022-12-07T08:02:16;2.50;;;1.67;;
51190;SDS011;37253;48.736;9.294;2022-12-07T08:04:18;1.88;;;1.40;;
51190;SDS011;37253;48.736;9.294;2022-12-07T08:06:18;2.45;;;1.60;;
51190;SDS011;37253;48.736;9.294;2022-12-07T08:08:18;7.00;;;1.50;;
51190;SDS011;37253;48.736;9.294;2022-12-07T08:10:19;5.65;;;1.83;;
51190;SDS011;37253;48.736;9.294;2022-12-07T08:12:19;2.20;;;1.60;;
51190;SDS011;37253;48.736;9.294;2022-12-07T08:14:19;2.80;;;1.35;;
51190;SDS011;37253;48.736;9.294;2022-12-07T08:16:20;5.43;;;1.90;;
51190;SDS011;37253;48.736;9.294;2022-12-07T08:18:20;3.28;;;1.40;;
51190;SDS011;37253;48.736;9.294;2022-12-07T08:20:20;5.32;;;1.60;;
51190;SDS011;37253;48.736;9.294;2022-12-07T08:22:21;2.55;;;1.42;;
51190;SDS011;37253;48.736;9.294;2022-12-07T08:24:21;1.55;;;1.35;;
51190;SDS011;37253;48.736;9.294;2022-12-07T08:26:22;1.95;;;1.38;;
51190;SDS011;37253;48.736;9.294;2022-12-07T08:28:22;1.85;;;1.35;;
51190;SDS011;37253;48.736;9.294;2022-12-07T08:30:22;7.30;;;1.45;;
51190;SDS011;37253;48.736;9.294;2022-12-07T08:32:23;2.00;;;1.70;;
51190;SDS011;37253;48.736;9.294;2022-12-07T08:34:23;7.43;;;1.25;;
51190;SDS011;37253;48.736;9.294;2022-12-07T08:36:23;3.50;;;1.50;;
51190;SDS011;37253;48.736;9.294;2022-12-07T08:38:24;2.70;;;1.40;;
51190;SDS011;37253;48.736;9.294;2022-12-07T08:40:24;2.53;;;1.50;;
51190;SDS011;37253;48.736;9.294;2022-12-07T08:42:24;2.92;;;1.17;;
51190;SDS011;37253;48.736;9.294;2022-12-07T08:44:29;2.85;;;1.10;;
51190;SDS011;37253;48.736;9.294;2022-12-07T08:46:40;5.00;;;1.10;;
51190;SDS011;37253;48.736;9.294;2022-12-07T08:48:47;2.25;;;1.33;;
51190;SDS011;37253;48.736;9.294;2022-12-07T08:51:06;2.38;;;1.38;;
51190;SDS011;37253;48.736;9.294;2022-12-07T08:53:07;2.35;;;1.35;;
51190;SDS011;37253;48.736;9.294;2022-12-07T08:55:08;1.70;;;1.10;;
51190;SDS011;37253;48.736;9.294;2022-12-07T08:57:10;1.30;;;1.10;;
51190;SDS011;37253;48.736;9.294;2022-12-07T08:59:10;2.65;;;1.10;;
51190;SDS011;37253;48.736;9.294;2022-12-07T09:01:12;1.83;;;1.13;;
51190;SDS011;37253;48.736;9.294;2022-12-07T09:03:13;4.25;;;1.30;;
51190;SDS011;37253;48.736;9.294;2022-12-07T09:05:13;1.40;;;1.20;;
51190;SDS011;37253;48.736;9.294;2022-12-07T09:07:14;1.10;;;1.00;;
51190;SDS011;37253;48.736;9.294;2022-12-07T09:09:16;3.28;;;1.10;;
51190;SDS011;37253;48.736;9.294;2022-12-07T09:11:16;2.20;;;1.55;;
51190;SDS011;37253;48.736;9.294;2022-12-07T09:13:16;2.70;;;1.60;;
51190;SDS011;37253;48.736;9.294;2022-12-07T09:15:16;3.03;;;1.58;;
51190;SDS011;37253;48.736;9.294;2022-12-07T09:17:17;1.70;;;1.50;;
51190;SDS011;37253;48.736;9.294;2022-12-07T09:19:17;2.83;;;1.48;;
51190;SDS011;37253;48.736;9.294;2022-12-07T09:21:18;2.95;;;1.40;;
51190;SDS011;37253;48.736;9.294;2022-12-07T09:23:18;5.47;;;1.60;;
51190;SDS011;37253;48.736;9.294;2022-12-07T09:25:18;4.00;;;1.40;;
51190;SDS011;37253;48.736;9.294;2022-12-07T09:27:19;3.05;;;1.58;;
51190;SDS011;37253;48.736;9.294;2022-12-07T09:29:19;3.33;;;1.23;;
51190;SDS011;37253;48.736;9.294;2022-12-07T09:31:19;4.80;;;1.58;;
51190;SDS011;37253;48.736;9.294;2022-12-07T09:33:19;2.35;;;1.23;;
51190;SDS011;37253;48.736;9.294;2022-12-07T09:35:20;1.75;;;1.50;;
51190;SDS011;37253;48.736;9.294;2022-12-07T09:37:21;2.92;;;1.30;;
51190;SDS011;37253;48.736;9.294;2022-12-07T09:39:21;2.88;;;1.33;;
51190;SDS011;37253;48.736;9.294;2022-12-07T09:41:22;3.75;;;1.63;;
51190;SDS011;37253;48.736;9.294;2022-12-07T09:43:24;1.98;;;1.25;;
51190;SDS011;37253;48.736;9.294;2022-12-07T09:45:27;2.00;;;1.15;;
51190;SDS011;37253;48.736;9.294;2022-12-07T09:47:32;4.60;;;1.50;;
51190;SDS011;37253;48.736;9.294;2022-12-07T09:49:33;2.25;;;1.33;;
51190;SDS011;37253;48.736;9.294;2022-12-07T09:51:34;1.40;;;1.30;;
51190;SDS011;37253;48.736;9.294;2022-12-07T09:53:34;3.88;;;1.40;;
51190;SDS011;37253;48.736;9.294;2022-12-07T09:55:36;3.17;;;1.30;;
51190;SDS011;37253;48.736;9.294;2022-12-07T09:57:38;1.88;;;1.40;;
51190;SDS011;37253;48.736;9.294;2022-12-07T09:59:38;2.25;;;1.20;;
51190;SDS011;37253;48.736;9.294;2022-12-07T10:01:40;2.80;;;1.45;;
51190;SDS011;37253;48.736;9.294;2022-12-07T10:04:24;2.17;;;1.55;;
51190;SDS011;37253;48.736;9.294;2022-12-07T10:06:12;5.20;;;1.40;;
51190;SDS011;37253;48.736;9.294;2022-12-07T10:08:13;3.85;;;1.40;;
51190;SDS011;37253;48.736;9.294;2022-12-07T10:10:15;2.35;;;1.20;;
51190;SDS011;37253;48.736;9.294;2022-12-07T10:12:18;4.85;;;1.23;;
51190;SDS011;37253;48.736;9.294;2022-12-07T10:14:19;1.33;;;1.10;;
51190;SDS011;37253;48.736;9.294;2022-12-07T10:18:30;2.88;;;1.45;;
51190;SDS011;37253;48.736;9.294;2022-12-07T10:20:38;3.72;;;1.13;;
51190;SDS011;37253;48.736;9.294;2022-12-07T10:22:38;4.63;;;1.10;;
51190;SDS011;37253;48.736;9.294;2022-12-07T10:24:42;1.40;;;1.00;;
51190;SDS011;37253;48.736;9.294;2022-12-07T10:32:48;4.47;;;1.27;;
51190;SDS011;37253;48.736;9.294;2022-12-07T10:34:48;1.45;;;1.10;;
51190;SDS011;37253;48.736;9.294;2022-12-07T10:36:48;2.20;;;1.20;;
51190;SDS011;37253;48.736;9.294;2022-12-07T10:38:50;3.85;;;1.15;;
51190;SDS011;37253;48.736;9.294;2022-12-07T10:41:07;3.00;;;1.50;;
51190;SDS011;37253;48.736;9.294;2022-12-07T10:47:20;2.42;;;1.17;;
51190;SDS011;37253;48.736;9.294;2022-12-07T10:52:36;3.72;;;1.30;;
51190;SDS011;37253;48.736;9.294;2022-12-07T11:05:48;1.85;;;1.20;;
51190;SDS011;37253;48.736;9.294;2022-12-07T11:14:28;1.83;;;1.13;;
51190;SDS011;37253;48.736;9.294;2022-12-07T11:16:42;3.05;;;2.47;;
51190;SDS011;37253;48.736;9.294;2022-12-07T11:19:32;7.97;;;3.20;;
51190;SDS011;37253;48.736;9.294;2022-12-07T11:23:49;11.93;;;2.72;;
51190;SDS011;37253;48.736;9.294;2022-12-07T11:28:44;4.47;;;1.77;;
51190;SDS011;37253;48.736;9.294;2022-12-07T11:31:54;3.10;;;1.63;;
51190;SDS011;37253;48.736;9.294;2022-12-07T11:33:46;4.07;;;1.60;;
51190;SDS011;37253;48.736;9.294;2022-12-07T11:40:53;2.80;;;1.67;;
51190;SDS011;37253;48.736;9.294;2022-12-07T11:43:17;5.13;;;1.50;;
51190;SDS011;37253;48.736;9.294;2022-12-07T11:45:29;2.40;;;1.50;;
51190;SDS011;37253;48.736;9.294;2022-12-07T11:50:00;4.07;;;1.30;;
51190;SDS011;37253;48.736;9.294;2022-12-07T11:52:06;2.22;;;1.30;;
51190;SDS011;37253;48.736;9.294;2022-12-07T11:54:32;2.83;;;1.50;;
51190;SDS011;37253;48.736;9.294;2022-12-07T11:56:35;5.32;;;1.40;;
51190;SDS011;37253;48.736;9.294;2022-12-07T12:00:44;4.10;;;1.40;;
51190;SDS011;37253;48.736;9.294;2022-12-07T12:02:49;3.83;;;1.58;;
51190;SDS011;37253;48.736;9.294;2022-12-07T12:05:04;2.88;;;1.20;;
51190;SDS011;37253;48.736;9.294;2022-12-07T12:07:15;2.20;;;1.30;;
51190;SDS011;37253;48.736;9.294;2022-12-07T12:09:24;6.57;;;1.40;;
51190;SDS011;37253;48.736;9.294;2022-12-07T12:11:38;4.70;;;1.40;;
51190;SDS011;37253;48.736;9.294;2022-12-07T12:13:52;3.25;;;1.38;;
51190;SDS011;37253;48.736;9.294;2022-12-07T12:16:08;4.18;;;1.33;;
51190;SDS011;37253;48.736;9.294;2022-12-07T12:25:19;3.42;;;1.48;;
51190;SDS011;37253;48.736;9.294;2022-12-07T12:27:32;3.17;;;1.23;;
51190;SDS011;37253;48.736;9.294;2022-12-07T12:29:38;2.88;;;1.38;;
51190;SDS011;37253;48.736;9.294;2022-12-07T12:31:40;6.78;;;1.50;;
51190;SDS011;37253;48.736;9.294;2022-12-07T12:39:28;3.05;;;1.42;;
51190;SDS011;37253;48.736;9.294;2022-12-07T12:41:10;2.20;;;1.50;;
51190;SDS011;37253;48.736;9.294;2022-12-07T12:43:52;3.33;;;1.10;;
51190;SDS011;37253;48.736;9.294;2022-12-07T12:46:15;4.72;;;1.52;;
51190;SDS011;37253;48.736;9.294;2022-12-07T12:48:38;1.95;;;1.30;;
51190;SDS011;37253;48.736;9.294;2022-12-07T12:54:38;7.47;;;1.48;;
51190;SDS011;37253;48.736;9.294;2022-12-07T12:56:43;2.35;;;1.38;;
51190;SDS011;37253;48.736;9.294;2022-12-07T13:03:27;2.92;;;1.10;;
51190;SDS011;37253;48.736;9.294;2022-12-07T13:05:29;3.47;;;1.20;;
51190;SDS011;37253;48.736;9.294;2022-12-07T13:09:52;1.83;;;1.20;;
51190;SDS011;37253;48.736;9.294;2022-12-07T13:12:03;1.40;;;0.90;;
51190;SDS011;37253;48.736;9.294;2022-12-07T13:16:42;3.22;;;1.23;;
51190;SDS011;37253;48.736;9.294;2022-12-07T13:18:43;4.18;;;1.10;;
51190;SDS011;37253;48.736;9.294;2022-12-07T13:20:47;1.65;;;1.10;;
51190;SDS011;37253;48.736;9.294;2022-12-07T13:22:49;2.83;;;1.15;;
51190;SDS011;37253;48.736;9.294;2022-12-07T13:24:54;2.67;;;1.20;;
51190;SDS011;37253;48.736;9.294;2022-12-07T13:26:55;4.45;;;1.30;;
51190;SDS011;37253;48.736;9.294;2022-12-07T13:33:20;1.92;;;1.27;;
51190;SDS011;37253;48.736;9.294;2022-12-07T13:35:28;1.83;;;1.10;;
51190;SDS011;37253;48.736;9.294;2022-12-07T13:37:30;3.08;;;1.23;;
51190;SDS011;37253;48.736;9.294;2022-12-07T13:39:32;1.67;;;1.13;;
51190;SDS011;37253;48.736;9.294;2022-12-07T13:41:33;1.83;;;1.02;;
51190;SDS011;37253;48.736;9.294;2022-12-07T13:43:42;2.72;;;1.10;;
51190;SDS011;37253;48.736;9.294;2022-12-07T13:45:46;2.47;;;1.05;;
51190;SDS011;37253;48.736;9.294;2022-12-07T13:47:56;1.75;;;0.90;;
51190;SDS011;37253;48.736;9.294;2022-12-07T13:49:57;1.20;;;1.02;;
51190;SDS011;37253;48.736;9.294;2022-12-07T13:54:19;6.57;;;1.10;;
51190;SDS011;37253;48.736;9.294;2022-12-07T13:56:25;1.30;;;1.10;;
51190;SDS011;37253;48.736;9.294;2022-12-07T13:58:30;1.77;;;1.10;;
51190;SDS011;37253;48.736;9.294;2022-12-07T14:00:31;1.70;;;1.00;;
51190;SDS011;37253;48.736;9.294;2022-12-07T14:02:32;1.65;;;0.90;;
51190;SDS011;37253;48.736;9.294;2022-12-07T14:04:34;0.88;;;0.85;;
51190;SDS011;37253;48.736;9.294;2022-12-07T14:06:36;1.75;;;1.00;;
51190;SDS011;37253;48.736;9.294;2022-12-07T14:08:51;1.50;;;0.90;;
51190;SDS011;37253;48.736;9.294;2022-12-07T14:11:11;1.63;;;1.25;;
51190;SDS011;37253;48.736;9.294;2022-12-07T14:13:32;1.60;;;1.10;;